Site:       
  Group:  
  From:      To:        
   
Sensor Name: Furnace      Latitude:-9.57320000 , Longitude:53.92290000
Please click on the Table Headers to view a Graph of the Observations.
TimeMax. Temp. (°C)Min. Temp. (°C)Mean Temp. (°C)Tot. Rain (mm)Mean Wind (kn)Max Gust (kn)Solar Rad. (J\cm2)Humidity (%)Atmos. Press. (mb)Temp. 5cm (°C)Temp. 10cm (°C)Temp. 20cm (°C)Temp. 30cm (°C)Temp. 50cm (°C)Temp. 100cm (°C)Grass Min. (°C)
15/11/2019 23:00:003.60 3.00 3.30 0.00 3.60 7.60 0.00 90.70 1013.50 3.60 3.70 4.80 5.60 6.90 9.30 -999.00
15/11/2019 22:00:003.60 3.20 3.40 0.00 4.00 8.60 0.00 90.00 1013.60 3.70 3.80 4.90 5.70 6.90 9.30 -999.00
15/11/2019 21:00:004.40 3.20 3.80 0.00 4.00 8.10 0.00 84.90 1013.90 3.90 4.00 5.10 5.80 6.90 9.30 -999.00
15/11/2019 20:00:003.40 3.00 3.20 0.00 2.30 4.30 0.00 84.60 1014.60 4.10 4.30 5.20 5.80 6.90 9.30 -999.00
15/11/2019 19:00:003.80 3.00 3.40 0.00 2.00 4.60 0.00 81.80 1015.00 4.40 4.50 5.30 5.80 6.90 9.30 -999.00
15/11/2019 18:00:004.50 3.50 4.00 0.00 2.50 5.20 0.00 78.80 1015.20 4.80 4.90 5.40 5.80 6.90 9.30 -999.00
15/11/2019 17:00:005.30 4.10 4.70 0.00 2.60 6.90 3.10 74.20 1015.20 5.20 5.30 5.40 5.80 6.90 9.30 -999.00
15/11/2019 16:00:007.40 5.30 6.40 0.00 5.50 14.00 13.40 67.40 1015.10 5.70 5.60 5.30 5.70 6.90 9.30 -999.00
15/11/2019 15:00:008.60 7.40 8.00 0.00 6.30 12.40 44.70 65.80 1015.50 5.90 5.60 5.10 5.70 7.00 9.30 -999.00
15/11/2019 14:00:008.60 7.50 8.10 0.00 5.60 13.90 73.00 67.60 1016.10 5.70 5.30 4.80 5.60 7.00 9.30 -999.00
15/11/2019 13:00:008.50 7.70 8.10 0.00 8.40 15.60 103.80 70.20 1016.50 5.20 4.80 4.70 5.60 7.00 9.30 -999.00
15/11/2019 12:00:007.70 6.30 7.00 0.00 5.60 11.10 84.80 78.10 1017.30 4.60 4.20 4.50 5.50 7.00 9.30 -999.00
15/11/2019 11:00:006.30 5.20 5.70 0.20 6.60 14.30 60.80 85.20 1017.60 4.00 3.90 4.50 5.50 7.00 9.30 -999.00
15/11/2019 10:00:005.70 4.70 5.20 0.10 7.50 15.40 48.50 86.20 1017.70 3.80 3.70 4.50 5.60 7.10 9.40 -999.00
15/11/2019 09:00:005.00 4.00 4.50 0.10 7.00 13.60 8.30 88.70 1017.70 3.60 3.60 4.60 5.60 7.10 9.40 -999.00
15/11/2019 08:00:004.60 3.80 4.20 0.60 6.90 13.00 0.00 85.80 1017.40 3.50 3.60 4.60 5.70 7.10 9.40 -999.00
15/11/2019 07:00:004.80 3.40 4.10 0.20 6.50 17.90 0.00 85.30 1016.90 3.60 3.60 4.70 5.70 7.10 9.40 -999.00
15/11/2019 06:00:004.50 3.20 3.90 0.10 4.90 9.90 0.00 86.30 1016.70 3.60 3.60 4.80 5.80 7.10 9.40 -999.00
15/11/2019 05:00:004.40 3.40 3.90 0.20 5.10 11.90 0.00 85.30 1016.80 3.60 3.70 4.90 5.80 7.20 9.40 -999.00
15/11/2019 04:00:003.50 3.10 3.30 0.00 4.90 10.10 0.00 82.30 1016.60 3.80 3.90 5.00 5.90 7.20 9.40 -999.00
15/11/2019 03:00:004.30 3.30 3.80 0.00 7.30 13.40 0.00 81.60 1016.70 4.00 4.10 5.10 6.00 7.20 9.40 -999.00
15/11/2019 02:00:004.50 3.60 4.00 0.10 9.10 15.10 0.00 84.10 1016.50 4.10 4.20 5.20 6.00 7.20 9.40 -999.00
15/11/2019 01:00:005.00 3.80 4.40 0.20 7.80 21.00 0.00 84.90 1016.50 4.30 4.40 5.20 6.00 7.20 9.40 -999.00
15/11/2019 00:00:005.00 3.90 4.40 0.00 7.80 14.90 0.00 86.70 1016.40 4.40 4.50 5.30 6.10 7.20 9.40 1.30
14/11/2019 23:00:005.20 4.20 4.70 0.60 8.60 16.50 0.00 83.70 1016.30 4.60 4.60 5.40 6.10 7.20 9.40 -999.00
14/11/2019 22:00:005.20 4.90 5.10 0.30 9.10 23.50 0.00 85.30 1016.00 4.70 4.70 5.50 6.20 7.20 9.40 -999.00